sensor_id;sensor_type;location;lat;lon;timestamp;temperature;humidity
1956;DHT22;978;48.314;11.562;2022-12-22T00:00:04;20.20;64.30
1956;DHT22;978;48.314;11.562;2022-12-22T00:02:48;20.20;64.30
1956;DHT22;978;48.314;11.562;2022-12-22T00:05:34;20.20;64.30
1956;DHT22;978;48.314;11.562;2022-12-22T00:08:19;20.20;64.20
1956;DHT22;978;48.314;11.562;2022-12-22T00:11:08;20.30;64.30
1956;DHT22;978;48.314;11.562;2022-12-22T00:13:52;20.30;64.30
1956;DHT22;978;48.314;11.562;2022-12-22T00:16:37;20.20;64.20
1956;DHT22;978;48.314;11.562;2022-12-22T00:19:22;20.30;64.20
1956;DHT22;978;48.314;11.562;2022-12-22T00:22:17;20.20;64.10
1956;DHT22;978;48.314;11.562;2022-12-22T00:25:02;20.20;64.20
1956;DHT22;978;48.314;11.562;2022-12-22T00:27:46;20.20;64.10
1956;DHT22;978;48.314;11.562;2022-12-22T00:30:30;20.20;64.10
1956;DHT22;978;48.314;11.562;2022-12-22T00:33:17;20.20;64.10
1956;DHT22;978;48.314;11.562;2022-12-22T00:36:02;20.20;64.10
1956;DHT22;978;48.314;11.562;2022-12-22T00:38:48;20.20;64.10
1956;DHT22;978;48.314;11.562;2022-12-22T00:41:32;20.20;64.10
1956;DHT22;978;48.314;11.562;2022-12-22T00:44:17;20.20;64.10
1956;DHT22;978;48.314;11.562;2022-12-22T00:47:01;20.20;64.10
1956;DHT22;978;48.314;11.562;2022-12-22T00:49:47;20.20;64.10
1956;DHT22;978;48.314;11.562;2022-12-22T00:52:32;20.20;64.00
1956;DHT22;978;48.314;11.562;2022-12-22T00:55:23;20.20;64.00
1956;DHT22;978;48.314;11.562;2022-12-22T00:58:13;20.20;64.00
1956;DHT22;978;48.314;11.562;2022-12-22T01:00:58;20.20;64.00
1956;DHT22;978;48.314;11.562;2022-12-22T01:03:42;20.20;64.00
1956;DHT22;978;48.314;11.562;2022-12-22T01:06:29;20.20;64.00
1956;DHT22;978;48.314;11.562;2022-12-22T01:09:14;20.20;64.00
1956;DHT22;978;48.314;11.562;2022-12-22T01:12:00;20.20;64.00
1956;DHT22;978;48.314;11.562;2022-12-22T01:14:44;20.20;63.90
1956;DHT22;978;48.314;11.562;2022-12-22T01:17:28;20.20;63.90
1956;DHT22;978;48.314;11.562;2022-12-22T01:20:13;20.20;63.80
1956;DHT22;978;48.314;11.562;2022-12-22T01:22:57;20.20;63.90
1956;DHT22;978;48.314;11.562;2022-12-22T01:25:41;20.20;63.80
1956;DHT22;978;48.314;11.562;2022-12-22T01:28:27;20.30;63.90
1956;DHT22;978;48.314;11.562;2022-12-22T01:31:17;20.30;63.90
1956;DHT22;978;48.314;11.562;2022-12-22T01:34:03;20.20;63.80
1956;DHT22;978;48.314;11.562;2022-12-22T01:36:47;20.20;63.80
1956;DHT22;978;48.314;11.562;2022-12-22T01:39:32;20.20;63.80
1956;DHT22;978;48.314;11.562;2022-12-22T01:42:16;20.20;63.80
1956;DHT22;978;48.314;11.562;2022-12-22T01:45:17;20.30;63.80
1956;DHT22;978;48.314;11.562;2022-12-22T01:48:03;20.20;63.70
1956;DHT22;978;48.314;11.562;2022-12-22T01:50:47;20.20;63.70
1956;DHT22;978;48.314;11.562;2022-12-22T01:53:31;20.20;63.70
1956;DHT22;978;48.314;11.562;2022-12-22T01:56:16;20.20;63.70
1956;DHT22;978;48.314;11.562;2022-12-22T01:59:02;20.20;64.30
1956;DHT22;978;48.314;11.562;2022-12-22T02:01:48;20.20;63.70
1956;DHT22;978;48.314;11.562;2022-12-22T02:04:35;20.30;63.80
1956;DHT22;978;48.314;11.562;2022-12-22T02:07:30;20.20;63.70
1956;DHT22;978;48.314;11.562;2022-12-22T02:10:32;20.20;63.70
1956;DHT22;978;48.314;11.562;2022-12-22T02:13:27;20.20;63.70
1956;DHT22;978;48.314;11.562;2022-12-22T02:16:19;20.20;63.70
1956;DHT22;978;48.314;11.562;2022-12-22T02:19:13;20.20;63.70
1956;DHT22;978;48.314;11.562;2022-12-22T02:22:08;20.20;63.70
1956;DHT22;978;48.314;11.562;2022-12-22T02:25:00;20.20;63.80
1956;DHT22;978;48.314;11.562;2022-12-22T02:27:49;20.20;63.80
1956;DHT22;978;48.314;11.562;2022-12-22T02:30:35;20.20;63.70
1956;DHT22;978;48.314;11.562;2022-12-22T02:33:20;20.20;63.70
1956;DHT22;978;48.314;11.562;2022-12-22T02:36:12;20.20;63.70
1956;DHT22;978;48.314;11.562;2022-12-22T02:39:09;20.20;63.70
1956;DHT22;978;48.314;11.562;2022-12-22T02:42:06;20.20;63.70
1956;DHT22;978;48.314;11.562;2022-12-22T02:45:05;20.20;63.70
1956;DHT22;978;48.314;11.562;2022-12-22T02:48:00;20.20;63.70
1956;DHT22;978;48.314;11.562;2022-12-22T02:50:51;20.20;63.90
1956;DHT22;978;48.314;11.562;2022-12-22T02:53:38;20.20;63.70
1956;DHT22;978;48.314;11.562;2022-12-22T02:56:23;20.20;63.70
1956;DHT22;978;48.314;11.562;2022-12-22T02:59:07;20.20;63.70
1956;DHT22;978;48.314;11.562;2022-12-22T03:01:53;20.20;63.70
1956;DHT22;978;48.314;11.562;2022-12-22T03:04:37;20.20;63.70
1956;DHT22;978;48.314;11.562;2022-12-22T03:07:22;20.20;63.70
1956;DHT22;978;48.314;11.562;2022-12-22T03:10:07;20.20;63.60
1956;DHT22;978;48.314;11.562;2022-12-22T03:12:52;20.20;63.60
1956;DHT22;978;48.314;11.562;2022-12-22T03:15:36;20.20;63.70
1956;DHT22;978;48.314;11.562;2022-12-22T03:18:22;20.20;63.70
1956;DHT22;978;48.314;11.562;2022-12-22T03:21:06;20.20;63.70
1956;DHT22;978;48.314;11.562;2022-12-22T03:23:50;20.20;63.60
1956;DHT22;978;48.314;11.562;2022-12-22T03:26:35;20.20;63.60
1956;DHT22;978;48.314;11.562;2022-12-22T03:29:03;20.20;63.60
1956;DHT22;978;48.314;11.562;2022-12-22T03:31:30;20.20;63.60
1956;DHT22;978;48.314;11.562;2022-12-22T03:33:58;20.20;63.60
1956;DHT22;978;48.314;11.562;2022-12-22T03:36:25;20.20;63.60
1956;DHT22;978;48.314;11.562;2022-12-22T03:38:52;20.20;63.60
1956;DHT22;978;48.314;11.562;2022-12-22T03:41:18;20.20;63.60
1956;DHT22;978;48.314;11.562;2022-12-22T03:43:59;20.20;63.60
1956;DHT22;978;48.314;11.562;2022-12-22T03:46:43;20.20;63.60
1956;DHT22;978;48.314;11.562;2022-12-22T03:49:11;20.20;63.60
1956;DHT22;978;48.314;11.562;2022-12-22T03:51:40;20.20;63.60
1956;DHT22;978;48.314;11.562;2022-12-22T03:54:08;20.20;63.60
1956;DHT22;978;48.314;11.562;2022-12-22T03:56:36;20.20;63.60
1956;DHT22;978;48.314;11.562;2022-12-22T03:59:03;20.20;63.60
1956;DHT22;978;48.314;11.562;2022-12-22T04:01:31;20.20;63.60
1956;DHT22;978;48.314;11.562;2022-12-22T04:03:57;20.20;63.60
1956;DHT22;978;48.314;11.562;2022-12-22T04:06:25;20.20;63.60
1956;DHT22;978;48.314;11.562;2022-12-22T04:08:52;20.20;63.60
1956;DHT22;978;48.314;11.562;2022-12-22T04:11:19;20.20;63.60
1956;DHT22;978;48.314;11.562;2022-12-22T04:14:03;20.20;63.70
1956;DHT22;978;48.314;11.562;2022-12-22T04:16:30;20.20;63.60
1956;DHT22;978;48.314;11.562;2022-12-22T04:18:57;20.20;63.70
1956;DHT22;978;48.314;11.562;2022-12-22T04:21:26;20.20;63.70
1956;DHT22;978;48.314;11.562;2022-12-22T04:23:52;20.20;63.70
1956;DHT22;978;48.314;11.562;2022-12-22T04:26:20;20.20;63.60
1956;DHT22;978;48.314;11.562;2022-12-22T04:28:48;20.20;63.70
1956;DHT22;978;48.314;11.562;2022-12-22T04:31:15;20.20;63.60
1956;DHT22;978;48.314;11.562;2022-12-22T04:33:42;20.20;63.60
1956;DHT22;978;48.314;11.562;2022-12-22T04:36:09;20.20;63.60
1956;DHT22;978;48.314;11.562;2022-12-22T04:38:37;20.20;63.60
1956;DHT22;978;48.314;11.562;2022-12-22T04:41:04;20.20;63.60
1956;DHT22;978;48.314;11.562;2022-12-22T04:43:31;20.20;63.70
1956;DHT22;978;48.314;11.562;2022-12-22T04:45:58;20.20;63.60
1956;DHT22;978;48.314;11.562;2022-12-22T04:48:27;20.20;63.60
1956;DHT22;978;48.314;11.562;2022-12-22T04:50:55;20.20;63.60
1956;DHT22;978;48.314;11.562;2022-12-22T04:53:24;20.20;63.60
1956;DHT22;978;48.314;11.562;2022-12-22T04:55:55;20.30;63.70
1956;DHT22;978;48.314;11.562;2022-12-22T04:58:22;20.20;63.60
1956;DHT22;978;48.314;11.562;2022-12-22T05:00:49;20.20;63.60
1956;DHT22;978;48.314;11.562;2022-12-22T05:03:16;20.20;63.70
1956;DHT22;978;48.314;11.562;2022-12-22T05:05:42;20.20;63.70
1956;DHT22;978;48.314;11.562;2022-12-22T05:08:09;20.20;63.60
1956;DHT22;978;48.314;11.562;2022-12-22T05:10:36;20.20;63.70
1956;DHT22;978;48.314;11.562;2022-12-22T05:13:04;20.20;63.70
1956;DHT22;978;48.314;11.562;2022-12-22T05:15:32;20.20;63.70
1956;DHT22;978;48.314;11.562;2022-12-22T05:18:00;20.20;63.70
1956;DHT22;978;48.314;11.562;2022-12-22T05:20:27;20.20;63.70
1956;DHT22;978;48.314;11.562;2022-12-22T05:22:54;20.20;63.70
1956;DHT22;978;48.314;11.562;2022-12-22T05:25:21;20.20;63.70
1956;DHT22;978;48.314;11.562;2022-12-22T05:27:49;20.20;63.70
1956;DHT22;978;48.314;11.562;2022-12-22T05:30:18;20.20;63.70
1956;DHT22;978;48.314;11.562;2022-12-22T05:32:45;20.20;64.30
1956;DHT22;978;48.314;11.562;2022-12-22T05:35:12;20.20;63.70
1956;DHT22;978;48.314;11.562;2022-12-22T05:37:39;20.20;63.70
1956;DHT22;978;48.314;11.562;2022-12-22T05:40:07;20.20;63.70
1956;DHT22;978;48.314;11.562;2022-12-22T05:42:34;20.20;63.70
1956;DHT22;978;48.314;11.562;2022-12-22T05:45:06;20.20;63.70
1956;DHT22;978;48.314;11.562;2022-12-22T05:47:36;20.20;63.70
1956;DHT22;978;48.314;11.562;2022-12-22T05:50:03;20.20;63.70
1956;DHT22;978;48.314;11.562;2022-12-22T05:52:30;20.20;63.70
1956;DHT22;978;48.314;11.562;2022-12-22T05:54:57;20.20;63.60
1956;DHT22;978;48.314;11.562;2022-12-22T05:57:24;20.20;63.70
1956;DHT22;978;48.314;11.562;2022-12-22T05:59:51;20.20;63.70
1956;DHT22;978;48.314;11.562;2022-12-22T06:02:18;20.20;63.60
1956;DHT22;978;48.314;11.562;2022-12-22T06:04:46;20.10;63.60
1956;DHT22;978;48.314;11.562;2022-12-22T06:07:12;20.20;64.30
1956;DHT22;978;48.314;11.562;2022-12-22T06:09:39;20.20;63.70
1956;DHT22;978;48.314;11.562;2022-12-22T06:12:06;20.20;63.60
1956;DHT22;978;48.314;11.562;2022-12-22T06:14:33;20.20;63.70
1956;DHT22;978;48.314;11.562;2022-12-22T06:17:00;20.20;63.70
1956;DHT22;978;48.314;11.562;2022-12-22T06:19:27;20.20;63.60
1956;DHT22;978;48.314;11.562;2022-12-22T06:21:55;20.20;63.50
1956;DHT22;978;48.314;11.562;2022-12-22T06:24:22;20.20;63.40
1956;DHT22;978;48.314;11.562;2022-12-22T06:26:49;20.20;63.40
1956;DHT22;978;48.314;11.562;2022-12-22T06:29:15;20.20;63.40
1956;DHT22;978;48.314;11.562;2022-12-22T06:31:42;20.20;63.40
1956;DHT22;978;48.314;11.562;2022-12-22T06:34:10;20.20;63.40
1956;DHT22;978;48.314;11.562;2022-12-22T06:36:37;20.20;63.30
1956;DHT22;978;48.314;11.562;2022-12-22T06:39:05;20.20;63.30
1956;DHT22;978;48.314;11.562;2022-12-22T06:41:32;20.20;63.30
1956;DHT22;978;48.314;11.562;2022-12-22T06:44:16;20.20;63.30
1956;DHT22;978;48.314;11.562;2022-12-22T06:46:43;20.30;63.30
1956;DHT22;978;48.314;11.562;2022-12-22T06:49:09;20.30;63.70
1956;DHT22;978;48.314;11.562;2022-12-22T06:51:36;20.30;63.40
1956;DHT22;978;48.314;11.562;2022-12-22T06:54:04;20.30;63.40
1956;DHT22;978;48.314;11.562;2022-12-22T06:56:31;20.30;63.50
1956;DHT22;978;48.314;11.562;2022-12-22T06:58:58;20.30;63.60
1956;DHT22;978;48.314;11.562;2022-12-22T07:01:25;20.30;63.60
1956;DHT22;978;48.314;11.562;2022-12-22T07:03:52;20.30;63.60
1956;DHT22;978;48.314;11.562;2022-12-22T07:06:19;20.30;63.70
1956;DHT22;978;48.314;11.562;2022-12-22T07:08:46;20.30;63.70
1956;DHT22;978;48.314;11.562;2022-12-22T07:11:15;20.30;63.80
1956;DHT22;978;48.314;11.562;2022-12-22T07:13:41;20.30;63.70
1956;DHT22;978;48.314;11.562;2022-12-22T07:16:09;20.30;63.90
1956;DHT22;978;48.314;11.562;2022-12-22T07:18:38;20.30;64.00
1956;DHT22;978;48.314;11.562;2022-12-22T07:21:06;20.30;64.20
1956;DHT22;978;48.314;11.562;2022-12-22T07:23:34;20.30;63.90
1956;DHT22;978;48.314;11.562;2022-12-22T07:26:02;20.30;63.80
1956;DHT22;978;48.314;11.562;2022-12-22T07:28:32;20.30;63.80
1956;DHT22;978;48.314;11.562;2022-12-22T07:30:59;20.30;63.70
1956;DHT22;978;48.314;11.562;2022-12-22T07:33:26;20.30;63.70
1956;DHT22;978;48.314;11.562;2022-12-22T07:36:01;20.30;63.60
1956;DHT22;978;48.314;11.562;2022-12-22T07:38:28;20.30;63.70
1956;DHT22;978;48.314;11.562;2022-12-22T07:40:57;20.30;63.60
1956;DHT22;978;48.314;11.562;2022-12-22T07:43:24;20.30;63.50
1956;DHT22;978;48.314;11.562;2022-12-22T07:45:51;20.30;63.50
1956;DHT22;978;48.314;11.562;2022-12-22T07:48:18;20.30;63.40
1956;DHT22;978;48.314;11.562;2022-12-22T07:51:04;20.30;63.40
1956;DHT22;978;48.314;11.562;2022-12-22T07:53:31;20.30;63.30
1956;DHT22;978;48.314;11.562;2022-12-22T07:56:02;20.30;63.30
1956;DHT22;978;48.314;11.562;2022-12-22T07:58:29;20.30;63.20
1956;DHT22;978;48.314;11.562;2022-12-22T08:00:58;20.30;63.20
1956;DHT22;978;48.314;11.562;2022-12-22T08:03:25;20.30;63.20
1956;DHT22;978;48.314;11.562;2022-12-22T08:05:52;20.30;63.10
1956;DHT22;978;48.314;11.562;2022-12-22T08:08:19;20.30;63.10
1956;DHT22;978;48.314;11.562;2022-12-22T08:10:46;20.30;63.10
1956;DHT22;978;48.314;11.562;2022-12-22T08:13:13;20.30;63.00
1956;DHT22;978;48.314;11.562;2022-12-22T08:15:39;20.30;63.00
1956;DHT22;978;48.314;11.562;2022-12-22T08:18:07;20.30;63.00
1956;DHT22;978;48.314;11.562;2022-12-22T08:20:34;20.30;62.90
1956;DHT22;978;48.314;11.562;2022-12-22T08:23:01;20.20;62.80
1956;DHT22;978;48.314;11.562;2022-12-22T08:25:28;20.30;62.90
1956;DHT22;978;48.314;11.562;2022-12-22T08:27:56;20.30;63.00
1956;DHT22;978;48.314;11.562;2022-12-22T08:30:23;20.30;63.00
1956;DHT22;978;48.314;11.562;2022-12-22T08:32:50;20.30;63.00
1956;DHT22;978;48.314;11.562;2022-12-22T08:35:18;20.30;63.10
1956;DHT22;978;48.314;11.562;2022-12-22T08:37:46;20.30;63.20
1956;DHT22;978;48.314;11.562;2022-12-22T08:40:17;20.30;63.20
1956;DHT22;978;48.314;11.562;2022-12-22T08:42:45;20.30;63.30
1956;DHT22;978;48.314;11.562;2022-12-22T08:45:13;20.30;63.30
1956;DHT22;978;48.314;11.562;2022-12-22T08:47:40;20.30;63.90
1956;DHT22;978;48.314;11.562;2022-12-22T08:50:08;20.30;63.40
1956;DHT22;978;48.314;11.562;2022-12-22T08:52:36;20.30;63.70
1956;DHT22;978;48.314;11.562;2022-12-22T08:55:03;20.30;63.80
1956;DHT22;978;48.314;11.562;2022-12-22T08:57:30;20.30;63.60
1956;DHT22;978;48.314;11.562;2022-12-22T08:59:56;20.30;63.60
1956;DHT22;978;48.314;11.562;2022-12-22T09:02:23;20.30;63.60
1956;DHT22;978;48.314;11.562;2022-12-22T09:04:50;20.30;63.60
1956;DHT22;978;48.314;11.562;2022-12-22T09:07:17;20.20;63.60
1956;DHT22;978;48.314;11.562;2022-12-22T09:09:45;20.20;63.60
1956;DHT22;978;48.314;11.562;2022-12-22T09:12:12;20.20;63.60
1956;DHT22;978;48.314;11.562;2022-12-22T09:14:38;20.20;63.50
1956;DHT22;978;48.314;11.562;2022-12-22T09:17:05;20.20;63.70
1956;DHT22;978;48.314;11.562;2022-12-22T09:19:33;20.30;64.30
1956;DHT22;978;48.314;11.562;2022-12-22T09:21:59;20.30;63.70
1956;DHT22;978;48.314;11.562;2022-12-22T09:24:26;20.30;63.80
1956;DHT22;978;48.314;11.562;2022-12-22T09:26:54;20.30;63.90
1956;DHT22;978;48.314;11.562;2022-12-22T09:29:21;20.30;64.00
1956;DHT22;978;48.314;11.562;2022-12-22T09:31:48;20.30;63.90
1956;DHT22;978;48.314;11.562;2022-12-22T09:34:14;20.30;63.90
1956;DHT22;978;48.314;11.562;2022-12-22T09:36:41;20.30;63.90
1956;DHT22;978;48.314;11.562;2022-12-22T09:39:09;20.30;64.00
1956;DHT22;978;48.314;11.562;2022-12-22T09:41:42;20.30;64.00
1956;DHT22;978;48.314;11.562;2022-12-22T09:44:20;20.30;64.10
1956;DHT22;978;48.314;11.562;2022-12-22T09:46:48;20.30;64.20
1956;DHT22;978;48.314;11.562;2022-12-22T09:49:16;20.30;64.20
1956;DHT22;978;48.314;11.562;2022-12-22T09:51:46;20.30;64.20
1956;DHT22;978;48.314;11.562;2022-12-22T09:54:14;20.30;64.20
1956;DHT22;978;48.314;11.562;2022-12-22T09:56:41;20.30;64.20
1956;DHT22;978;48.314;11.562;2022-12-22T09:59:10;20.30;64.20
1956;DHT22;978;48.314;11.562;2022-12-22T10:02:04;20.30;64.20
1956;DHT22;978;48.314;11.562;2022-12-22T10:04:44;20.30;64.30
1956;DHT22;978;48.314;11.562;2022-12-22T10:07:20;20.30;64.30
1956;DHT22;978;48.314;11.562;2022-12-22T10:09:49;20.30;64.30
1956;DHT22;978;48.314;11.562;2022-12-22T10:12:19;20.30;64.20
1956;DHT22;978;48.314;11.562;2022-12-22T10:14:47;20.30;64.20
1956;DHT22;978;48.314;11.562;2022-12-22T10:17:19;20.30;64.30
1956;DHT22;978;48.314;11.562;2022-12-22T10:19:47;20.30;64.30
1956;DHT22;978;48.314;11.562;2022-12-22T10:22:24;20.30;64.30
1956;DHT22;978;48.314;11.562;2022-12-22T10:24:53;20.30;64.30
1956;DHT22;978;48.314;11.562;2022-12-22T10:27:21;20.30;64.30
1956;DHT22;978;48.314;11.562;2022-12-22T10:29:49;20.30;64.30
1956;DHT22;978;48.314;11.562;2022-12-22T10:32:19;20.30;64.30
1956;DHT22;978;48.314;11.562;2022-12-22T10:34:59;20.30;64.30
1956;DHT22;978;48.314;11.562;2022-12-22T10:37:31;20.30;64.30
1956;DHT22;978;48.314;11.562;2022-12-22T10:40:12;20.30;64.30
1956;DHT22;978;48.314;11.562;2022-12-22T10:42:43;20.30;64.30
1956;DHT22;978;48.314;11.562;2022-12-22T10:45:16;20.30;64.30
1956;DHT22;978;48.314;11.562;2022-12-22T10:47:46;20.30;64.70
1956;DHT22;978;48.314;11.562;2022-12-22T10:50:14;20.30;64.60
1956;DHT22;978;48.314;11.562;2022-12-22T10:52:49;20.30;64.50
1956;DHT22;978;48.314;11.562;2022-12-22T10:55:19;20.30;64.50
1956;DHT22;978;48.314;11.562;2022-12-22T10:57:46;20.30;64.60
1956;DHT22;978;48.314;11.562;2022-12-22T11:00:24;20.30;64.60
1956;DHT22;978;48.314;11.562;2022-12-22T11:02:53;20.30;64.60
1956;DHT22;978;48.314;11.562;2022-12-22T11:05:20;20.30;64.60
1956;DHT22;978;48.314;11.562;2022-12-22T11:07:47;20.30;64.70
1956;DHT22;978;48.314;11.562;2022-12-22T11:10:17;20.30;64.60
1956;DHT22;978;48.314;11.562;2022-12-22T11:13:07;20.30;64.70
1956;DHT22;978;48.314;11.562;2022-12-22T11:15:42;20.30;64.70
1956;DHT22;978;48.314;11.562;2022-12-22T11:18:31;20.30;64.70
1956;DHT22;978;48.314;11.562;2022-12-22T11:21:04;20.30;64.60
1956;DHT22;978;48.314;11.562;2022-12-22T11:23:37;20.30;64.50
1956;DHT22;978;48.314;11.562;2022-12-22T11:26:10;20.30;64.50
1956;DHT22;978;48.314;11.562;2022-12-22T11:28:50;20.30;64.40
1956;DHT22;978;48.314;11.562;2022-12-22T11:31:38;20.20;64.30
1956;DHT22;978;48.314;11.562;2022-12-22T11:34:20;20.30;64.30
1956;DHT22;978;48.314;11.562;2022-12-22T11:36:59;20.30;64.30
1956;DHT22;978;48.314;11.562;2022-12-22T11:39:36;20.30;64.30
1956;DHT22;978;48.314;11.562;2022-12-22T11:42:18;20.30;64.30
1956;DHT22;978;48.314;11.562;2022-12-22T11:44:54;20.30;64.30
1956;DHT22;978;48.314;11.562;2022-12-22T11:47:32;20.30;64.30
1956;DHT22;978;48.314;11.562;2022-12-22T11:50:28;20.30;64.30
1956;DHT22;978;48.314;11.562;2022-12-22T11:53:14;20.30;64.30
1956;DHT22;978;48.314;11.562;2022-12-22T11:55:46;20.30;64.30
1956;DHT22;978;48.314;11.562;2022-12-22T11:58:37;20.30;64.20
1956;DHT22;978;48.314;11.562;2022-12-22T12:01:15;20.30;64.30
1956;DHT22;978;48.314;11.562;2022-12-22T12:04:07;20.30;64.30
1956;DHT22;978;48.314;11.562;2022-12-22T12:09:38;20.30;64.30
1956;DHT22;978;48.314;11.562;2022-12-22T12:12:13;20.30;64.30
1956;DHT22;978;48.314;11.562;2022-12-22T12:14:48;20.30;64.30
1956;DHT22;978;48.314;11.562;2022-12-22T12:17:28;20.30;64.30
1956;DHT22;978;48.314;11.562;2022-12-22T12:23:09;20.30;64.30
1956;DHT22;978;48.314;11.562;2022-12-22T12:25:40;20.30;64.30
1956;DHT22;978;48.314;11.562;2022-12-22T12:28:18;20.30;64.30
1956;DHT22;978;48.314;11.562;2022-12-22T12:30:52;20.30;64.20
1956;DHT22;978;48.314;11.562;2022-12-22T12:33:25;20.30;64.20
1956;DHT22;978;48.314;11.562;2022-12-22T12:36:00;20.20;64.10
1956;DHT22;978;48.314;11.562;2022-12-22T12:38:36;20.20;64.20
1956;DHT22;978;48.314;11.562;2022-12-22T12:41:12;20.30;64.20
1956;DHT22;978;48.314;11.562;2022-12-22T12:43:39;20.30;64.20
1956;DHT22;978;48.314;11.562;2022-12-22T12:49:50;20.30;64.20
1956;DHT22;978;48.314;11.562;2022-12-22T12:52:17;20.30;64.20
1956;DHT22;978;48.314;11.562;2022-12-22T12:54:45;20.20;64.10
1956;DHT22;978;48.314;11.562;2022-12-22T12:57:25;20.30;64.20
1956;DHT22;978;48.314;11.562;2022-12-22T12:59:53;20.20;64.10
1956;DHT22;978;48.314;11.562;2022-12-22T13:02:39;20.20;64.10
1956;DHT22;978;48.314;11.562;2022-12-22T13:05:31;20.20;64.10
1956;DHT22;978;48.314;11.562;2022-12-22T13:08:15;20.20;64.10
1956;DHT22;978;48.314;11.562;2022-12-22T13:10:47;20.20;64.00
1956;DHT22;978;48.314;11.562;2022-12-22T13:13:44;20.30;64.10
1956;DHT22;978;48.314;11.562;2022-12-22T13:16:35;20.20;64.00
1956;DHT22;978;48.314;11.562;2022-12-22T13:19:10;20.30;64.10
1956;DHT22;978;48.314;11.562;2022-12-22T13:21:40;20.30;64.00
1956;DHT22;978;48.314;11.562;2022-12-22T13:24:18;20.20;64.00
1956;DHT22;978;48.314;11.562;2022-12-22T13:26:49;20.20;64.00
1956;DHT22;978;48.314;11.562;2022-12-22T13:29:23;20.20;64.00
1956;DHT22;978;48.314;11.562;2022-12-22T13:31:55;20.20;64.00
1956;DHT22;978;48.314;11.562;2022-12-22T13:34:34;20.30;64.20
1956;DHT22;978;48.314;11.562;2022-12-22T13:37:06;20.30;64.10
1956;DHT22;978;48.314;11.562;2022-12-22T13:39:38;20.20;64.10
1956;DHT22;978;48.314;11.562;2022-12-22T13:42:06;20.20;64.20
1956;DHT22;978;48.314;11.562;2022-12-22T13:44:34;20.20;64.20
1956;DHT22;978;48.314;11.562;2022-12-22T13:47:02;20.30;64.20
1956;DHT22;978;48.314;11.562;2022-12-22T13:49:30;20.20;64.10
1956;DHT22;978;48.314;11.562;2022-12-22T13:51:58;20.20;64.10
1956;DHT22;978;48.314;11.562;2022-12-22T13:54:28;20.20;64.10
1956;DHT22;978;48.314;11.562;2022-12-22T13:56:57;20.20;64.10
1956;DHT22;978;48.314;11.562;2022-12-22T13:59:28;20.20;64.00
1956;DHT22;978;48.314;11.562;2022-12-22T14:01:58;20.20;64.10
1956;DHT22;978;48.314;11.562;2022-12-22T14:04:25;20.20;64.10
1956;DHT22;978;48.314;11.562;2022-12-22T14:06:53;20.20;64.00
1956;DHT22;978;48.314;11.562;2022-12-22T14:09:21;20.30;64.20
1956;DHT22;978;48.314;11.562;2022-12-22T14:11:51;20.20;64.60
1956;DHT22;978;48.314;11.562;2022-12-22T14:14:23;20.20;64.00
1956;DHT22;978;48.314;11.562;2022-12-22T14:16:53;20.30;64.00
1956;DHT22;978;48.314;11.562;2022-12-22T14:19:22;20.30;64.00
1956;DHT22;978;48.314;11.562;2022-12-22T14:21:57;20.30;64.00
1956;DHT22;978;48.314;11.562;2022-12-22T14:24:27;20.30;64.00
1956;DHT22;978;48.314;11.562;2022-12-22T14:26:57;20.30;64.10
1956;DHT22;978;48.314;11.562;2022-12-22T14:29:26;20.30;64.10
1956;DHT22;978;48.314;11.562;2022-12-22T14:31:57;20.30;64.10
1956;DHT22;978;48.314;11.562;2022-12-22T14:34:28;20.30;64.00
1956;DHT22;978;48.314;11.562;2022-12-22T14:36:55;20.30;64.00
1956;DHT22;978;48.314;11.562;2022-12-22T14:39:23;20.30;64.00
1956;DHT22;978;48.314;11.562;2022-12-22T14:41:52;20.30;63.90
1956;DHT22;978;48.314;11.562;2022-12-22T14:44:22;20.30;64.00
1956;DHT22;978;48.314;11.562;2022-12-22T14:47:05;20.30;63.90
1956;DHT22;978;48.314;11.562;2022-12-22T14:49:34;20.30;63.90
1956;DHT22;978;48.314;11.562;2022-12-22T14:52:07;20.30;63.80
1956;DHT22;978;48.314;11.562;2022-12-22T14:54:39;20.30;63.90
1956;DHT22;978;48.314;11.562;2022-12-22T14:57:16;20.30;63.80
1956;DHT22;978;48.314;11.562;2022-12-22T14:59:58;20.30;63.80
1956;DHT22;978;48.314;11.562;2022-12-22T15:02:29;20.30;63.80
1956;DHT22;978;48.314;11.562;2022-12-22T15:05:07;20.30;63.80
1956;DHT22;978;48.314;11.562;2022-12-22T15:07:43;20.30;63.80
1956;DHT22;978;48.314;11.562;2022-12-22T15:10:10;20.30;63.80
1956;DHT22;978;48.314;11.562;2022-12-22T15:12:37;20.30;63.80
1956;DHT22;978;48.314;11.562;2022-12-22T15:15:10;20.30;63.80
1956;DHT22;978;48.314;11.562;2022-12-22T15:17:39;20.30;63.80
1956;DHT22;978;48.314;11.562;2022-12-22T15:20:13;20.30;63.70
1956;DHT22;978;48.314;11.562;2022-12-22T15:22:41;20.30;63.70
1956;DHT22;978;48.314;11.562;2022-12-22T15:25:11;20.30;63.70
1956;DHT22;978;48.314;11.562;2022-12-22T15:27:38;20.30;63.70
1956;DHT22;978;48.314;11.562;2022-12-22T15:30:07;20.30;63.80
1956;DHT22;978;48.314;11.562;2022-12-22T15:32:34;20.30;63.70
1956;DHT22;978;48.314;11.562;2022-12-22T15:35:02;20.30;63.70
1956;DHT22;978;48.314;11.562;2022-12-22T15:37:31;20.30;63.70
1956;DHT22;978;48.314;11.562;2022-12-22T15:39:58;20.30;63.70
1956;DHT22;978;48.314;11.562;2022-12-22T15:42:25;20.30;63.70
1956;DHT22;978;48.314;11.562;2022-12-22T15:44:52;20.30;63.70
1956;DHT22;978;48.314;11.562;2022-12-22T15:47:19;20.30;63.70
1956;DHT22;978;48.314;11.562;2022-12-22T15:49:46;20.30;63.70
1956;DHT22;978;48.314;11.562;2022-12-22T15:52:14;20.30;63.70
1956;DHT22;978;48.314;11.562;2022-12-22T15:54:41;20.30;63.70
1956;DHT22;978;48.314;11.562;2022-12-22T15:57:10;20.30;63.70
1956;DHT22;978;48.314;11.562;2022-12-22T15:59:37;20.30;63.70
1956;DHT22;978;48.314;11.562;2022-12-22T16:02:09;20.30;63.70
1956;DHT22;978;48.314;11.562;2022-12-22T16:04:36;20.30;63.70
1956;DHT22;978;48.314;11.562;2022-12-22T16:07:03;20.30;63.70
1956;DHT22;978;48.314;11.562;2022-12-22T16:09:35;20.30;63.70
1956;DHT22;978;48.314;11.562;2022-12-22T16:12:12;20.30;63.70
1956;DHT22;978;48.314;11.562;2022-12-22T16:14:40;20.30;63.70
1956;DHT22;978;48.314;11.562;2022-12-22T16:17:12;20.30;63.60
1956;DHT22;978;48.314;11.562;2022-12-22T16:19:42;20.30;63.70
1956;DHT22;978;48.314;11.562;2022-12-22T16:22:09;20.30;63.70
1956;DHT22;978;48.314;11.562;2022-12-22T16:24:40;20.30;63.60
1956;DHT22;978;48.314;11.562;2022-12-22T16:27:09;20.30;63.60
1956;DHT22;978;48.314;11.562;2022-12-22T16:29:37;20.30;63.60
1956;DHT22;978;48.314;11.562;2022-12-22T16:32:14;20.30;63.60
1956;DHT22;978;48.314;11.562;2022-12-22T16:34:41;20.30;63.70
1956;DHT22;978;48.314;11.562;2022-12-22T16:37:08;20.30;63.60
1956;DHT22;978;48.314;11.562;2022-12-22T16:39:35;20.30;63.60
1956;DHT22;978;48.314;11.562;2022-12-22T16:42:03;20.30;63.60
1956;DHT22;978;48.314;11.562;2022-12-22T16:44:30;20.30;63.60
1956;DHT22;978;48.314;11.562;2022-12-22T16:46:57;20.30;63.60
1956;DHT22;978;48.314;11.562;2022-12-22T16:49:24;20.30;63.60
1956;DHT22;978;48.314;11.562;2022-12-22T16:51:52;20.30;63.60